Time;durP1;ratioP1;P1;durP2;ratioP2;P2;SDS_P1;SDS_P2;PMS_P1;PMS_P2;Temp;Humidity;BMP_temperature;BMP_pressure;BME280_temperature;BME280_humidity;BME280_pressure;Samples;Min_cycle;Max_cycle;Signal;HPM_P1;HPM_P2
2023/12/20 00:00:38;;;;;;;5.68;1.45;;;;;;;5.56;100.00;101312.56;7394076;19;20656;-75
2023/12/20 00:03:07;;;;;;;12.25;1.40;;;;;;;5.54;100.00;101313.66;7390335;19;19962;-75
2023/12/20 00:05:38;;;;;;;8.85;1.00;;;;;;;5.51;100.00;101317.44;7392153;19;20374;-75
2023/12/20 00:08:09;;;;;;;10.70;1.00;;;;;;;5.51;100.00;101313.94;7392336;19;19943;-75
2023/12/20 00:10:38;;;;;;;6.68;0.95;;;;;;;5.48;100.00;101310.53;7392851;19;20318;-75
2023/12/20 00:13:07;;;;;;;8.07;1.08;;;;;;;5.44;100.00;101295.75;7389205;19;19962;-75
2023/12/20 00:15:35;;;;;;;5.63;1.20;;;;;;;5.41;100.00;101305.84;7390332;19;19949;-75
2023/12/20 00:18:04;;;;;;;9.13;1.38;;;;;;;5.39;100.00;101284.59;7391706;19;20268;-75
2023/12/20 00:20:32;;;;;;;5.95;1.10;;;;;;;5.37;100.00;101291.06;7391090;19;20218;-75
2023/12/20 00:23:02;;;;;;;3.63;1.00;;;;;;;5.33;100.00;101284.31;7387421;19;19943;-75
2023/12/20 00:25:33;;;;;;;7.10;0.85;;;;;;;5.32;100.00;101271.94;7391800;19;20256;-75
2023/12/20 00:28:02;;;;;;;5.75;1.20;;;;;;;5.30;100.00;101280.09;7391987;19;19922;-75
2023/12/20 00:30:30;;;;;;;9.00;1.10;;;;;;;5.28;100.00;101279.38;7392676;19;20345;-75
2023/12/20 00:33:00;;;;;;;6.03;0.90;;;;;;;5.27;100.00;101284.81;7388096;19;20272;-75
2023/12/20 00:35:28;;;;;;;7.93;1.10;;;;;;;5.25;100.00;101292.16;7390001;19;19930;-75
2023/12/20 00:37:57;;;;;;;9.02;1.63;;;;;;;5.24;100.00;101285.09;7388546;19;19918;-75
2023/12/20 00:40:25;;;;;;;3.60;1.02;;;;;;;5.22;100.00;101276.41;7390740;19;19922;-75
2023/12/20 00:42:56;;;;;;;8.90;1.45;;;;;;;5.22;100.00;101279.88;7390062;19;20337;-75
2023/12/20 00:45:25;;;;;;;7.50;1.38;;;;;;;5.23;100.00;101286.94;7391215;19;19918;-75
2023/12/20 00:47:54;;;;;;;5.22;1.30;;;;;;;5.23;100.00;101268.22;7387598;19;19922;-75
2023/12/20 00:50:22;;;;;;;8.75;1.35;;;;;;;5.23;100.00;101270.06;7388382;19;19956;-75
2023/12/20 00:52:51;;;;;;;5.00;1.13;;;;;;;5.23;100.00;101278.91;7390749;19;20340;-75
2023/12/20 00:55:20;;;;;;;7.10;0.73;;;;;;;5.23;100.00;101268.22;7395844;19;19959;-75
2023/12/20 00:57:48;;;;;;;6.38;0.98;;;;;;;5.27;100.00;101276.81;7388180;19;20337;-75
2023/12/20 01:00:20;;;;;;;6.95;1.25;;;;;;;5.28;100.00;101276.69;7390358;19;19923;-75
2023/12/20 01:02:49;;;;;;;9.93;0.82;;;;;;;5.32;100.00;101266.59;7389125;19;19982;-75
2023/12/20 01:05:17;;;;;;;8.40;0.98;;;;;;;5.34;100.00;101264.63;7388465;19;19927;-75
2023/12/20 01:07:46;;;;;;;4.22;1.00;;;;;;;5.35;100.00;101261.00;7388253;19;19919;-75
2023/12/20 01:10:15;;;;;;;5.20;1.58;;;;;;;5.38;100.00;101258.91;7388012;19;19929;-75
2023/12/20 01:12:43;;;;;;;9.75;1.42;;;;;;;5.39;100.00;101257.06;7387887;19;19974;-75
2023/12/20 01:15:12;;;;;;;8.82;1.35;;;;;;;5.41;100.00;101255.94;7381513;19;20224;-75
2023/12/20 01:17:44;;;;;;;9.23;1.83;;;;;;;5.42;100.00;101241.63;7363132;19;19929;-75
2023/12/20 01:20:13;;;;;;;8.10;1.25;;;;;;;5.43;100.00;101243.31;7373768;19;19986;-75
2023/12/20 01:22:42;;;;;;;9.10;1.75;;;;;;;5.43;100.00;101245.97;7390003;19;20459;-74
2023/12/20 01:25:11;;;;;;;12.68;1.33;;;;;;;5.43;100.00;101247.81;7398655;19;19939;-74
2023/12/20 01:27:59;;;;;;;4.40;1.20;;;;;;;5.43;100.00;101248.66;7384725;19;19926;-75
2023/12/20 01:30:28;;;;;;;8.60;1.17;;;;;;;5.41;100.00;101237.25;7376004;19;19923;-74
2023/12/20 01:32:59;;;;;;;7.45;1.00;;;;;;;5.42;100.00;101240.75;7358127;19;20508;-74
2023/12/20 01:35:30;;;;;;;8.10;0.98;;;;;;;5.41;100.00;101237.25;7377075;19;20369;-74
2023/12/20 01:37:59;;;;;;;12.68;1.42;;;;;;;5.41;100.00;101250.59;7377854;19;19923;-74
2023/12/20 01:40:27;;;;;;;11.32;1.42;;;;;;;5.41;100.00;101234.56;7376623;19;19918;-76
2023/12/20 01:43:03;;;;;;;7.05;1.08;;;;;;;5.41;100.00;101234.56;7374622;19;19939;-76
2023/12/20 01:45:32;;;;;;;5.53;1.40;;;;;;;5.42;100.00;101214.03;7376148;19;19918;-76
2023/12/20 01:48:06;;;;;;;8.45;1.50;;;;;;;5.43;100.00;101227.28;7380797;19;19954;-77
2023/12/20 01:50:38;;;;;;;10.18;1.73;;;;;;;5.44;100.00;101222.75;7383115;19;20301;-77
2023/12/20 01:53:07;;;;;;;3.30;1.05;;;;;;;5.45;100.00;101229.78;7386172;19;19915;-77
2023/12/20 01:55:39;;;;;;;5.78;1.05;;;;;;;5.47;100.00;101223.34;7384055;19;19993;-77
2023/12/20 01:58:28;;;;;;;6.50;1.15;;;;;;;5.51;100.00;101223.06;7385544;19;19926;-77
2023/12/20 02:00:58;;;;;;;4.80;1.08;;;;;;;5.54;100.00;101214.78;7394073;19;19925;-77
2023/12/20 02:03:29;;;;;;;5.80;1.05;;;;;;;5.58;100.00;101218.88;7403138;19;20001;-76
2023/12/20 02:05:58;;;;;;;11.70;1.75;;;;;;;5.60;100.00;101238.28;7389281;19;20496;-77
2023/12/20 02:08:26;;;;;;;4.00;1.00;;;;;;;5.62;100.00;101213.13;7393828;19;19922;-75
2023/12/20 02:10:55;;;;;;;15.30;2.58;;;;;;;5.62;100.00;101236.31;7395155;19;19994;-75
2023/12/20 02:13:23;;;;;;;14.82;1.50;;;;;;;5.59;100.00;101217.91;7395863;19;19926;-75
2023/12/20 02:15:52;;;;;;;9.60;0.93;;;;;;;5.56;100.00;101229.72;7393916;19;19926;-75
2023/12/20 02:18:21;;;;;;;8.65;1.10;;;;;;;5.53;100.00;101221.94;7393787;19;19938;-76
2023/12/20 02:20:53;;;;;;;7.68;1.30;;;;;;;5.52;100.00;101222.94;7392111;19;19930;-76
2023/12/20 02:23:24;;;;;;;;;;;;;;;5.45;100.00;101211.09;7394902;19;19943;-75
2023/12/20 02:25:52;;;;;;;10.52;1.55;;;;;;;5.47;100.00;101220.69;7391617;19;19981;-75
2023/12/20 02:28:22;;;;;;;10.15;1.70;;;;;;;5.46;100.00;101210.97;7393999;19;20307;-76
2023/12/20 02:30:51;;;;;;;8.38;1.25;;;;;;;5.46;100.00;101221.66;7395563;19;19922;-75
2023/12/20 02:33:20;;;;;;;9.43;1.00;;;;;;;5.48;100.00;101208.13;7388116;19;20352;-75
2023/12/20 02:35:49;;;;;;;6.07;1.23;;;;;;;5.48;100.00;101198.31;7395279;19;20222;-75
2023/12/20 02:38:19;;;;;;;4.82;0.82;;;;;;;5.46;100.00;101178.91;7394947;19;19954;-75
2023/12/20 02:40:50;;;;;;;7.72;1.13;;;;;;;5.44;100.00;101180.84;7395201;19;19922;-75
2023/12/20 02:43:19;;;;;;;10.77;1.77;;;;;;;5.43;100.00;101173.84;7394735;19;20002;-75
2023/12/20 02:45:48;;;;;;;9.63;1.67;;;;;;;5.41;100.00;101169.59;7394038;19;19922;-75
2023/12/20 02:48:16;;;;;;;7.18;1.00;;;;;;;5.38;100.00;101178.75;7393501;19;19929;-75
2023/12/20 02:50:45;;;;;;;7.28;1.00;;;;;;;5.38;100.00;101180.56;7394305;19;19945;-76
2023/12/20 02:53:13;;;;;;;8.30;1.58;;;;;;;5.36;100.00;101186.03;7392165;19;19950;-75
2023/12/20 02:55:42;;;;;;;8.65;1.63;;;;;;;5.36;100.00;101175.34;7393573;19;19918;-76
2023/12/20 02:58:33;;;;;;;8.82;1.92;;;;;;;5.35;100.00;101165.63;7390859;19;19922;-75
2023/12/20 03:01:02;;;;;;;3.92;1.00;;;;;;;5.35;100.00;101162.16;7394211;19;19919;-75
2023/12/20 03:03:31;;;;;;;4.82;1.10;;;;;;;5.34;100.00;101158.63;7392109;19;19934;-75
2023/12/20 03:06:00;;;;;;;10.07;2.30;;;;;;;5.35;100.00;101170.16;7392985;19;20372;-75
2023/12/20 03:08:28;;;;;;;8.00;1.30;;;;;;;5.38;100.00;101160.06;7391780;19;19926;-75
2023/12/20 03:10:57;;;;;;;13.55;1.63;;;;;;;5.41;100.00;101202.50;7398835;19;19939;-76
2023/12/20 03:13:25;;;;;;;5.57;1.50;;;;;;;5.43;100.00;101155.16;7392255;19;20414;-75
2023/12/20 03:15:56;;;;;;;6.50;1.77;;;;;;;5.43;100.00;101165.84;7393758;19;19926;-76
2023/12/20 03:18:27;;;;;;;8.05;1.40;;;;;;;5.43;100.00;101156.97;7392911;19;20377;-75
2023/12/20 03:20:56;;;;;;;7.28;1.35;;;;;;;5.42;100.00;101166.81;7391002;19;19922;-76
2023/12/20 03:23:26;;;;;;;9.32;1.88;;;;;;;5.42;100.00;101150.78;7394451;19;19962;-75
2023/12/20 03:25:54;;;;;;;8.88;2.03;;;;;;;5.40;100.00;101152.72;7391871;19;19942;-75
2023/12/20 03:28:23;;;;;;;7.57;1.58;;;;;;;5.39;100.00;101150.22;7391752;19;20491;-75
2023/12/20 03:30:51;;;;;;;8.95;1.35;;;;;;;5.36;100.00;101140.63;7390586;19;19919;-76
2023/12/20 03:33:23;;;;;;;7.65;1.58;;;;;;;5.34;100.00;101141.75;7392353;19;19950;-75
2023/12/20 03:35:52;;;;;;;8.70;1.75;;;;;;;5.33;100.00;101137.38;7392435;19;19922;-75
2023/12/20 03:38:20;;;;;;;11.50;1.77;;;;;;;5.29;100.00;101142.16;7391337;19;20268;-75
2023/12/20 03:40:49;;;;;;;16.13;2.45;;;;;;;5.29;100.00;101128.81;7397314;19;19922;-75
2023/12/20 03:43:17;;;;;;;14.35;2.15;;;;;;;5.30;100.00;101135.84;7390799;19;19922;-75
2023/12/20 03:45:46;;;;;;;7.28;1.63;;;;;;;5.31;100.00;101124.16;7393089;19;19929;-76
2023/12/20 03:48:14;;;;;;;14.43;2.38;;;;;;;5.33;100.00;101124.03;7389664;19;20271;-76
2023/12/20 03:50:46;;;;;;;11.98;2.17;;;;;;;5.38;100.00;101124.47;7392256;19;19923;-75
2023/12/20 03:53:14;;;;;;;12.73;2.05;;;;;;;5.40;100.00;101126.00;7391462;19;20376;-75
2023/12/20 03:55:43;;;;;;;15.85;2.33;;;;;;;5.43;100.00;101133.78;7395144;19;19930;-75
2023/12/20 03:58:12;;;;;;;9.20;2.33;;;;;;;5.45;100.00;101185.22;7390415;19;19924;-75
2023/12/20 04:00:41;;;;;;;12.13;2.72;;;;;;;5.48;100.00;101126.16;7392370;19;19922;-75
2023/12/20 04:03:12;;;;;;;10.80;1.70;;;;;;;5.48;100.00;101123.50;7390853;19;20281;-75
2023/12/20 04:05:41;;;;;;;10.05;1.90;;;;;;;5.48;100.00;101120.81;7391645;19;19928;-75
2023/12/20 04:08:12;;;;;;;6.72;1.52;;;;;;;5.49;100.00;101100.28;7391827;19;19946;-76
2023/12/20 04:10:41;;;;;;;13.07;1.83;;;;;;;5.46;100.00;101100.56;7391535;19;19926;-76
2023/12/20 04:13:09;;;;;;;11.82;1.70;;;;;;;5.44;100.00;101103.38;7392087;19;19963;-75
2023/12/20 04:15:38;;;;;;;13.18;2.28;;;;;;;5.39;100.00;101102.94;7391266;19;19918;-75
2023/12/20 04:18:07;;;;;;;17.33;2.78;;;;;;;5.38;100.00;101108.44;7392589;19;20319;-75
2023/12/20 04:20:35;;;;;;;16.92;2.40;;;;;;;5.37;100.00;101115.59;7393230;19;20384;-75
2023/12/20 04:23:04;;;;;;;11.88;1.80;;;;;;;5.37;100.00;101104.91;7389266;19;19954;-75
2023/12/20 04:25:35;;;;;;;11.95;1.83;;;;;;;5.38;100.00;101101.28;7391355;19;19922;-75
2023/12/20 04:28:04;;;;;;;13.00;2.53;;;;;;;5.37;100.00;101109.41;7393590;19;19915;-75
2023/12/20 04:30:32;;;;;;;19.17;2.17;;;;;;;5.38;100.00;101105.78;7393188;19;19926;-75
2023/12/20 04:33:02;;;;;;;19.90;2.92;;;;;;;5.39;100.00;101112.81;7394502;19;19930;-75
2023/12/20 04:35:32;;;;;;;9.68;2.00;;;;;;;5.38;100.00;101101.28;7388979;19;20467;-76
2023/12/20 04:38:02;;;;;;;10.80;1.90;;;;;;;5.40;100.00;101101.97;7392221;19;19918;-75
2023/12/20 04:40:30;;;;;;;15.35;2.08;;;;;;;5.42;100.00;101108.03;7392098;19;20258;-75
2023/12/20 04:43:01;;;;;;;13.98;1.90;;;;;;;5.44;100.00;101108.72;7392102;19;19946;-75
2023/12/20 04:45:30;;;;;;;13.57;2.20;;;;;;;5.45;100.00;101105.06;7390872;19;22350;-75
2023/12/20 04:47:58;;;;;;;22.70;3.15;;;;;;;5.46;100.00;101088.06;7391953;19;19915;-76
2023/12/20 04:50:27;;;;;;;11.60;2.17;;;;;;;5.46;100.00;101087.22;7391011;19;19930;-76
2023/12/20 04:52:56;;;;;;;11.48;2.40;;;;;;;5.46;100.00;101072.03;7392227;19;20345;-75
2023/12/20 04:55:44;;;;;;;14.30;2.55;;;;;;;5.49;100.00;101086.94;7389417;19;19930;-75
2023/12/20 04:58:15;;;;;;;16.40;2.67;;;;;;;5.52;100.00;101092.03;7391293;19;20376;-76
2023/12/20 05:00:44;;;;;;;15.07;3.10;;;;;;;5.55;100.00;101118.44;7390898;19;19926;-76
2023/12/20 05:03:12;;;;;;;14.77;2.13;;;;;;;5.60;100.00;101094.84;7388151;19;19951;-75
2023/12/20 05:05:41;;;;;;;15.07;2.20;;;;;;;5.65;100.00;101087.22;7390884;19;19943;-76
2023/12/20 05:08:10;;;;;;;10.50;2.17;;;;;;;5.74;100.00;101101.56;7391718;19;19942;-77
2023/12/20 05:10:40;;;;;;;15.18;2.50;;;;;;;5.79;100.00;101094.81;7391036;19;19929;-77
2023/12/20 05:13:08;;;;;;;18.85;2.55;;;;;;;5.87;100.00;101099.50;7390479;19;19926;-77
2023/12/20 05:15:39;;;;;;;13.15;3.30;;;;;;;5.92;100.00;101102.59;7389923;19;19923;-75
2023/12/20 05:18:08;;;;;;;19.35;2.55;;;;;;;5.97;100.00;101094.16;7390964;19;19927;-75
2023/12/20 05:20:37;;;;;;;14.85;2.05;;;;;;;6.01;100.00;101101.75;7390117;19;19926;-75
2023/12/20 05:23:06;;;;;;;15.07;2.60;;;;;;;6.05;100.00;101094.28;7394454;19;19919;-75
2023/12/20 05:25:35;;;;;;;16.52;2.42;;;;;;;6.08;100.00;101102.03;7395898;19;19926;-75
2023/12/20 05:28:03;;;;;;;19.23;2.33;;;;;;;6.11;100.00;101099.91;7399109;19;19926;-75
2023/12/20 05:30:32;;;;;;;18.38;2.80;;;;;;;6.12;100.00;101098.94;7392410;19;20285;-75
2023/12/20 05:33:03;;;;;;;24.50;2.72;;;;;;;6.14;100.00;101098.78;7396388;19;19956;-75
2023/12/20 05:35:31;;;;;;;17.30;2.63;;;;;;;6.16;100.00;101097.66;7396584;19;19957;-75
2023/12/20 05:38:00;;;;;;;20.50;2.10;;;;;;;6.17;100.00;101087.81;7394912;19;19947;-75
2023/12/20 05:40:29;;;;;;;14.80;1.98;;;;;;;6.16;100.00;101102.16;7397907;19;20384;-75
2023/12/20 05:42:58;;;;;;;15.45;2.33;;;;;;;6.16;100.00;101091.47;7395527;19;19923;-75
2023/12/20 05:45:46;;;;;;;18.95;2.70;;;;;;;6.14;100.00;101082.72;7395131;19;20347;-75
2023/12/20 05:48:17;;;;;;;21.40;2.78;;;;;;;6.13;100.00;101073.00;7394736;19;19922;-77
2023/12/20 05:50:46;;;;;;;16.48;3.10;;;;;;;6.11;100.00;101091.03;7396284;19;20278;-75
2023/12/20 05:53:14;;;;;;;17.92;2.40;;;;;;;6.09;100.00;101077.81;7396661;19;19922;-75
2023/12/20 05:55:43;;;;;;;13.98;2.42;;;;;;;6.07;100.00;101082.47;7400991;19;20376;-75
2023/12/20 05:58:12;;;;;;;22.95;2.33;;;;;;;6.07;100.00;101081.63;7395760;19;19946;-76
2023/12/20 06:00:41;;;;;;;13.52;1.85;;;;;;;6.08;100.00;101081.50;7394115;19;19918;-75
2023/12/20 06:03:09;;;;;;;17.30;2.17;;;;;;;6.12;100.00;101047.28;7395374;19;19926;-75
2023/12/20 06:05:40;;;;;;;10.82;2.08;;;;;;;6.13;100.00;101028.38;7393209;19;19963;-75
2023/12/20 06:08:09;;;;;;;17.85;3.30;;;;;;;6.17;100.00;101053.84;7395535;19;19958;-75
2023/12/20 06:10:38;;;;;;;14.98;2.45;;;;;;;6.19;100.00;101043.03;7393570;19;19919;-75
2023/12/20 06:13:06;;;;;;;7.88;2.38;;;;;;;6.20;100.00;101053.59;7394376;19;19926;-76
2023/12/20 06:15:35;;;;;;;14.98;2.80;;;;;;;6.22;100.00;101051.59;7392215;19;19922;-76
2023/12/20 06:18:04;;;;;;;14.60;1.80;;;;;;;6.24;100.00;101063.00;7395574;19;19926;-75
2023/12/20 06:20:33;;;;;;;12.88;2.50;;;;;;;6.27;100.00;101068.06;7394482;19;19978;-75
2023/12/20 06:23:24;;;;;;;15.38;2.75;;;;;;;6.28;100.00;101052.84;7394517;19;19933;-75
2023/12/20 06:25:52;;;;;;;20.77;2.65;;;;;;;6.26;100.00;101061.00;7391035;19;19923;-75
2023/12/20 06:28:21;;;;;;;19.40;3.00;;;;;;;6.24;100.00;101051.47;7391896;19;19943;-75
2023/12/20 06:30:51;;;;;;;11.73;2.70;;;;;;;6.22;100.00;101050.75;7390408;19;19971;-75
2023/12/20 06:33:21;;;;;;;14.60;2.30;;;;;;;6.19;100.00;101051.03;7390827;19;19939;-75
2023/12/20 06:35:49;;;;;;;14.80;2.38;;;;;;;6.19;100.00;101038.53;7400109;19;20191;-77
2023/12/20 06:38:18;;;;;;;9.65;2.05;;;;;;;6.22;100.00;101034.69;7393445;19;19926;-75
2023/12/20 06:40:50;;;;;;;22.92;3.05;;;;;;;6.24;100.00;101030.91;7392302;19;20281;-75
2023/12/20 06:43:19;;;;;;;13.23;2.53;;;;;;;6.26;100.00;101050.31;7390988;19;19926;-76
2023/12/20 06:45:47;;;;;;;12.63;2.08;;;;;;;6.29;100.00;101038.50;7392569;19;19914;-76
2023/12/20 06:48:16;;;;;;;16.27;2.20;;;;;;;6.31;100.00;101023.97;7390782;19;20277;-76
2023/12/20 06:50:45;;;;;;;12.32;1.88;;;;;;;6.31;100.00;101023.97;7389309;19;19927;-76
2023/12/20 06:53:13;;;;;;;15.43;2.60;;;;;;;6.31;100.00;101010.59;7392346;19;19948;-75
2023/12/20 06:55:42;;;;;;;12.32;2.65;;;;;;;6.31;100.00;101020.44;7391708;19;20346;-75
2023/12/20 06:58:13;;;;;;;13.23;2.20;;;;;;;6.31;100.00;101021.31;7391109;19;20138;-75
2023/12/20 07:00:42;;;;;;;14.98;2.33;;;;;;;6.32;100.00;101006.94;7393170;19;19930;-75
2023/12/20 07:03:11;;;;;;;23.15;2.67;;;;;;;6.30;100.00;101013.41;7391155;19;19923;-75
2023/12/20 07:05:40;;;;;;;19.17;2.20;;;;;;;6.29;100.00;101007.25;7393114;19;19919;-75
2023/12/20 07:08:10;;;;;;;12.65;2.28;;;;;;;6.29;100.00;101027.81;7391697;19;19943;-76
2023/12/20 07:10:38;;;;;;;18.35;2.80;;;;;;;6.30;100.00;101008.06;7393129;19;19986;-77
2023/12/20 07:13:07;;;;;;;16.80;2.60;;;;;;;6.32;100.00;101000.75;7385319;19;19918;-75
2023/12/20 07:15:39;;;;;;;20.08;3.72;;;;;;;6.31;100.00;100994.53;7388060;19;20345;-77
2023/12/20 07:18:08;;;;;;;14.40;2.97;;;;;;;6.31;100.00;100994.53;7393389;19;19926;-77
2023/12/20 07:20:36;;;;;;;14.27;1.85;;;;;;;6.32;100.00;100984.69;7391690;19;19914;-79
2023/12/20 07:23:05;;;;;;;19.40;3.20;;;;;;;6.33;100.00;100984.56;7394545;19;20359;-78
2023/12/20 07:25:34;;;;;;;14.40;2.50;;;;;;;6.35;100.00;101000.44;7385569;19;20285;-76
2023/12/20 07:28:23;;;;;;;;;;;;;;;6.30;100.00;101008.06;7394982;19;20367;-76
2023/12/20 07:30:54;;;;;;;11.77;2.58;;;;;;;6.36;100.00;100994.94;7390309;19;19926;-76
2023/12/20 07:33:22;;;;;;;17.42;3.20;;;;;;;6.39;100.00;100988.44;7390058;19;19915;-76
2023/12/20 07:35:51;;;;;;;14.95;2.28;;;;;;;6.42;100.00;100985.50;7391476;19;19943;-76
2023/12/20 07:38:20;;;;;;;19.75;2.45;;;;;;;6.43;100.00;100992.53;7391509;19;20362;-77
2023/12/20 07:40:49;;;;;;;16.10;2.50;;;;;;;6.44;100.00;100994.22;7392452;19;20337;-76
2023/12/20 07:43:18;;;;;;;16.65;2.28;;;;;;;6.47;100.00;100990.41;7399113;19;19971;-76
2023/12/20 07:45:46;;;;;;;15.25;2.45;;;;;;;6.50;100.00;100992.78;7390211;19;19934;-76
2023/12/20 07:48:17;;;;;;;9.18;2.38;;;;;;;6.51;100.00;100981.09;7393293;19;19937;-76
2023/12/20 07:50:46;;;;;;;14.70;2.53;;;;;;;6.51;100.00;100992.66;7390847;19;20281;-77
2023/12/20 07:53:15;;;;;;;13.55;2.00;;;;;;;6.52;100.00;100997.00;7392840;19;19926;-77
2023/12/20 07:55:43;;;;;;;19.08;2.72;;;;;;;6.59;100.00;101002.59;7394475;19;19948;-77
2023/12/20 07:58:12;;;;;;;16.92;2.22;;;;;;;6.63;100.00;101026.25;7394400;19;19923;-76
2023/12/20 08:00:40;;;;;;;12.50;1.65;;;;;;;6.66;100.00;100998.34;7394802;19;19926;-77
2023/12/20 08:03:09;;;;;;;11.15;2.38;;;;;;;6.69;100.00;101000.72;7391854;19;19934;-76
2023/12/20 08:05:41;;;;;;;16.40;2.22;;;;;;;6.70;100.00;100995.22;7392495;19;19926;-76
2023/12/20 08:08:09;;;;;;;;;;;;;;;6.67;100.00;101010.75;7395716;19;20396;-77
2023/12/20 08:10:38;;;;;;;17.77;3.00;;;;;;;6.73;100.00;100991.41;7395573;19;19947;-77
2023/12/20 08:13:27;;;;;;;19.38;2.30;;;;;;;6.77;100.00;100998.97;7391072;19;19926;-76
2023/12/20 08:15:56;;;;;;;14.98;2.03;;;;;;;6.82;100.00;100998.53;7391492;19;20024;-76
2023/12/20 08:18:25;;;;;;;10.77;1.88;;;;;;;6.84;100.00;100991.19;7393529;19;20554;-77
2023/12/20 08:20:56;;;;;;;13.95;2.22;;;;;;;6.88;100.00;100994.41;7393392;19;19907;-77
2023/12/20 08:23:24;;;;;;;16.23;2.40;;;;;;;6.90;100.00;100995.97;7387368;19;19922;-77
2023/12/20 08:25:53;;;;;;;16.25;2.60;;;;;;;6.92;100.00;101003.81;7392092;19;19926;-76
2023/12/20 08:28:41;;;;;;;11.60;2.42;;;;;;;6.93;100.00;100995.66;7385911;19;19927;-77
2023/12/20 08:31:30;;;;;;;15.80;3.00;;;;;;;7.01;100.00;101013.66;7388668;19;20555;-77
2023/12/20 08:34:18;;;;;;;8.98;1.90;;;;;;;7.04;100.00;100998.09;7389556;19;19928;-75
2023/12/20 08:36:50;;;;;;;10.82;1.95;;;;;;;7.11;100.00;100983.13;7390855;19;20202;-77
2023/12/20 08:39:18;;;;;;;13.85;2.33;;;;;;;7.15;100.00;100987.19;7392096;19;19942;-77
2023/12/20 08:41:47;;;;;;;27.20;3.65;;;;;;;7.19;100.00;100985.88;7389450;19;20221;-77
2023/12/20 08:44:16;;;;;;;12.25;3.03;;;;;;;7.22;100.00;100976.69;7393681;19;19939;-77
2023/12/20 08:46:48;;;;;;;11.38;1.70;;;;;;;7.24;100.00;100969.38;7388468;19;19915;-77
2023/12/20 08:49:16;;;;;;;15.10;2.45;;;;;;;7.26;100.00;100972.72;7392514;19;19950;-76
2023/12/20 08:51:45;;;;;;;11.95;2.28;;;;;;;7.34;100.00;100971.94;7396585;19;19921;-77
2023/12/20 08:54:17;;;;;;;27.98;3.65;;;;;;;7.31;100.00;101107.09;7393139;19;19940;-76
2023/12/20 08:56:46;;;;;;;3.67;0.60;;;;;;;5.82;100.00;101073.19;7390877;19;19923;-76
2023/12/20 08:59:14;;;;;;;6.80;0.68;;;;;;;5.33;100.00;101046.56;7394848;19;20343;-76
2023/12/20 09:01:43;;;;;;;4.03;0.40;;;;;;;4.92;100.00;101053.78;7396290;19;19971;-76
2023/12/20 09:04:11;;;;;;;2.58;0.40;;;;;;;5.09;100.00;101052.28;7396522;19;19947;-76
2023/12/20 09:06:41;;;;;;;3.38;0.50;;;;;;;4.54;100.00;101069.66;7398264;19;19974;-76
2023/12/20 09:09:32;;;;;;;2.50;0.63;;;;;;;4.33;100.00;101067.03;7397088;19;19919;-76
2023/12/20 09:12:00;;;;;;;8.30;0.90;;;;;;;6.49;100.00;101063.34;7397916;19;20293;-76
2023/12/20 09:14:29;;;;;;;4.93;0.82;;;;;;;6.33;100.00;101086.22;7396179;19;19918;-76
2023/12/20 09:16:57;;;;;;;3.38;0.90;;;;;;;6.73;100.00;101058.34;7399798;19;19930;-76
2023/12/20 09:19:26;;;;;;;3.78;0.50;;;;;;;6.08;100.00;101040.53;7397113;19;19927;-76
2023/12/20 09:21:54;;;;;;;4.28;0.90;;;;;;;5.63;100.00;101065.16;7398722;19;19923;-76
2023/12/20 09:24:23;;;;;;;4.45;0.70;;;;;;;5.18;100.00;101083.50;7397289;19;19919;-76
2023/12/20 09:26:54;;;;;;;5.13;0.70;;;;;;;6.55;100.00;101079.69;7395003;19;19922;-76
2023/12/20 09:29:23;;;;;;;5.18;0.80;;;;;;;7.05;100.00;101090.03;7395217;19;19927;-76
2023/12/20 09:31:51;;;;;;;5.15;1.00;;;;;;;5.94;100.00;101103.31;7396240;19;19918;-76
2023/12/20 09:34:21;;;;;;;4.95;0.55;;;;;;;6.24;100.00;101095.13;7392886;19;19933;-76
2023/12/20 09:36:49;;;;;;;6.72;0.85;;;;;;;5.72;100.00;101082.16;7391704;19;19929;-76
2023/12/20 09:39:21;;;;;;;5.18;0.73;;;;;;;5.31;100.00;101085.91;7393392;19;20345;-76
2023/12/20 09:42:02;;;;;;;4.05;0.47;;;;;;;5.20;100.00;101091.38;7394735;19;19918;-76
2023/12/20 09:44:31;;;;;;;8.20;0.70;;;;;;;5.12;100.00;101072.53;7399385;19;19922;-76
2023/12/20 09:47:00;;;;;;;3.20;0.70;;;;;;;5.17;100.00;101097.00;7397059;19;19922;-76
2023/12/20 09:49:30;;;;;;;7.88;0.88;;;;;;;5.12;100.00;101097.41;7395695;19;20400;-76
2023/12/20 09:51:59;;;;;;;7.03;1.15;;;;;;;5.15;100.00;101093.63;7398388;19;19939;-75
2023/12/20 09:54:29;;;;;;;5.53;0.60;;;;;;;5.15;100.00;101083.78;7397198;19;19950;-77
2023/12/20 09:57:01;;;;;;;7.35;0.88;;;;;;;5.08;100.00;101082.66;7396574;19;19922;-77
2023/12/20 09:59:30;;;;;;;3.22;0.80;;;;;;;5.07;100.00;101083.63;7395754;19;19943;-77
2023/12/20 10:01:59;;;;;;;3.95;0.80;;;;;;;5.09;100.00;101088.84;7396160;19;20301;-77
2023/12/20 10:04:28;;;;;;;1.90;0.43;;;;;;;5.17;100.00;101092.50;7394675;19;20678;-75
2023/12/20 10:06:56;;;;;;;5.40;1.00;;;;;;;5.17;100.00;101094.34;7397677;19;19914;-77
2023/12/20 10:09:27;;;;;;;4.32;0.73;;;;;;;5.21;100.00;101109.97;7393270;19;19923;-77
2023/12/20 10:11:57;;;;;;;5.53;0.88;;;;;;;5.25;100.00;101095.34;7395809;19;19922;-77
2023/12/20 10:14:28;;;;;;;3.50;0.50;;;;;;;5.29;100.00;101091.41;7396522;19;19937;-75
2023/12/20 10:17:05;;;;;;;4.63;0.90;;;;;;;5.36;100.00;101081.84;7396354;19;21170;-74
2023/12/20 10:19:33;;;;;;;3.47;0.60;;;;;;;5.39;100.00;101089.59;7395051;19;19919;-75
2023/12/20 10:22:02;;;;;;;7.35;1.17;;;;;;;5.43;100.00;101083.00;7393347;19;19931;-75
2023/12/20 10:24:31;;;;;;;8.85;1.10;;;;;;;5.40;100.00;101087.75;7396908;19;19927;-74
2023/12/20 10:27:07;;;;;;;3.40;1.00;;;;;;;5.48;100.00;101079.88;7397770;19;20360;-75
2023/12/20 10:29:39;;;;;;;6.05;1.25;;;;;;;5.51;100.00;101089.47;7395568;19;19923;-75
2023/12/20 10:32:26;;;;;;;7.22;1.42;;;;;;;5.64;100.00;101088.22;7395980;19;19918;-75
2023/12/20 10:34:55;;;;;;;8.65;1.25;;;;;;;5.71;100.00;101092.00;7394993;19;19927;-75
2023/12/20 10:37:24;;;;;;;4.15;1.42;;;;;;;5.78;100.00;101081.63;7396736;19;19922;-75
2023/12/20 10:39:56;;;;;;;6.70;0.77;;;;;;;5.83;100.00;101079.34;7394026;19;19922;-74
2023/12/20 10:42:27;;;;;;;2.53;0.70;;;;;;;5.98;100.00;101077.97;7395539;19;19921;-75
2023/12/20 10:44:59;;;;;;;12.48;1.10;;;;;;;5.86;100.00;101063.91;7393861;19;19919;-75
2023/12/20 10:47:28;;;;;;;8.07;1.70;;;;;;;5.94;100.00;101071.22;7392868;19;19926;-75
2023/12/20 10:49:57;;;;;;;8.77;1.33;;;;;;;6.04;100.00;101077.38;7393418;19;20373;-75
2023/12/20 10:52:26;;;;;;;9.13;0.70;;;;;;;6.12;100.00;101074.03;7396329;19;19951;-75
2023/12/20 10:54:55;;;;;;;10.00;1.42;;;;;;;6.29;100.00;101066.09;7394065;19;19933;-75
2023/12/20 10:57:24;;;;;;;12.95;1.35;;;;;;;6.36;100.00;101069.88;7393041;19;21306;-75
2023/12/20 11:00:03;;;;;;;2.40;0.80;;;;;;;6.47;100.00;101063.53;7388082;19;19919;-75
2023/12/20 11:02:35;;;;;;;12.10;1.65;;;;;;;6.62;100.00;101058.50;7389255;19;19929;-75
2023/12/20 11:05:10;;;;;;;10.18;1.70;;;;;;;6.70;100.00;101048.75;7389188;19;19952;-76
2023/12/20 11:07:43;;;;;;;14.05;2.15;;;;;;;6.80;100.00;101046.88;7395943;19;19974;-76
2023/12/20 11:10:20;;;;;;;16.55;3.67;;;;;;;6.92;100.00;101052.88;7398677;19;20016;-77
2023/12/20 11:12:51;;;;;;;7.95;2.20;;;;;;;7.00;100.00;101046.78;7393582;19;20501;-74
2023/12/20 11:15:24;;;;;;;13.48;3.22;;;;;;;7.09;100.00;101049.41;7393490;19;19922;-74
2023/12/20 11:17:57;;;;;;;17.23;5.20;;;;;;;7.13;100.00;101042.75;7394324;19;20004;-80
2023/12/20 11:20:37;;;;;;;27.95;5.57;;;;;;;7.20;100.00;101046.53;7393047;19;19918;-77
2023/12/20 11:23:25;;;;;;;19.35;3.63;;;;;;;7.24;100.00;101047.91;7392087;19;19922;-78
2023/12/20 11:25:58;;;;;;;12.55;2.72;;;;;;;7.30;100.00;101052.66;7394774;19;19919;-77
2023/12/20 11:28:29;;;;;;;11.45;2.83;;;;;;;7.29;100.00;101050.94;7392989;19;21055;-76
2023/12/20 11:31:03;;;;;;;12.85;2.75;;;;;;;7.26;100.00;101061.97;7393917;19;19941;-76
2023/12/20 11:33:33;;;;;;;10.70;2.25;;;;;;;7.18;100.00;101056.53;7393571;19;19943;-76
2023/12/20 11:36:02;;;;;;;10.20;1.95;;;;;;;7.11;100.00;101043.91;7394809;19;19959;-76